sensor_id;sensor_type;location;lat;lon;timestamp;temperature;humidity
16728;DHT22;8482;54.396;18.590;2023-07-20T00:01:59;15.90;99.90
16728;DHT22;8482;54.396;18.590;2023-07-20T00:04:24;15.90;99.90
16728;DHT22;8482;54.396;18.590;2023-07-20T00:06:50;15.80;99.90
16728;DHT22;8482;54.396;18.590;2023-07-20T00:09:16;15.80;99.90
16728;DHT22;8482;54.396;18.590;2023-07-20T00:11:48;15.80;99.90
16728;DHT22;8482;54.396;18.590;2023-07-20T00:14:19;15.80;99.90
16728;DHT22;8482;54.396;18.590;2023-07-20T00:16:45;15.80;99.90
16728;DHT22;8482;54.396;18.590;2023-07-20T00:19:25;15.80;99.90
16728;DHT22;8482;54.396;18.590;2023-07-20T00:21:53;15.70;99.90
16728;DHT22;8482;54.396;18.590;2023-07-20T00:24:20;15.70;99.90
16728;DHT22;8482;54.396;18.590;2023-07-20T00:26:46;15.70;99.90
16728;DHT22;8482;54.396;18.590;2023-07-20T00:29:12;15.70;99.90
16728;DHT22;8482;54.396;18.590;2023-07-20T00:31:38;15.70;99.90
16728;DHT22;8482;54.396;18.590;2023-07-20T00:34:04;15.70;99.90
16728;DHT22;8482;54.396;18.590;2023-07-20T00:36:30;15.70;99.90
16728;DHT22;8482;54.396;18.590;2023-07-20T00:38:56;15.70;99.90
16728;DHT22;8482;54.396;18.590;2023-07-20T00:41:22;15.70;99.90
16728;DHT22;8482;54.396;18.590;2023-07-20T00:43:47;15.70;99.90
16728;DHT22;8482;54.396;18.590;2023-07-20T00:46:14;15.70;99.90
16728;DHT22;8482;54.396;18.590;2023-07-20T00:48:41;15.70;99.90
16728;DHT22;8482;54.396;18.590;2023-07-20T00:51:08;15.70;99.90
16728;DHT22;8482;54.396;18.590;2023-07-20T00:53:34;15.60;99.90
16728;DHT22;8482;54.396;18.590;2023-07-20T00:56:00;15.60;99.90
16728;DHT22;8482;54.396;18.590;2023-07-20T00:58:27;15.60;99.90
16728;DHT22;8482;54.396;18.590;2023-07-20T01:00:53;15.60;99.90
16728;DHT22;8482;54.396;18.590;2023-07-20T01:03:20;15.60;99.90
16728;DHT22;8482;54.396;18.590;2023-07-20T01:05:54;15.60;99.90
16728;DHT22;8482;54.396;18.590;2023-07-20T01:08:47;15.60;99.90
16728;DHT22;8482;54.396;18.590;2023-07-20T01:14:05;15.60;99.90
16728;DHT22;8482;54.396;18.590;2023-07-20T01:16:33;15.60;99.90
16728;DHT22;8482;54.396;18.590;2023-07-20T01:18:59;15.60;99.90
16728;DHT22;8482;54.396;18.590;2023-07-20T01:21:34;15.60;99.90
16728;DHT22;8482;54.396;18.590;2023-07-20T01:33:18;15.70;99.90
16728;DHT22;8482;54.396;18.590;2023-07-20T01:35:50;15.70;99.90
16728;DHT22;8482;54.396;18.590;2023-07-20T01:38:20;15.70;99.90
16728;DHT22;8482;54.396;18.590;2023-07-20T01:40:47;15.70;99.90
16728;DHT22;8482;54.396;18.590;2023-07-20T01:43:14;15.70;99.90
16728;DHT22;8482;54.396;18.590;2023-07-20T01:45:40;15.70;99.90
16728;DHT22;8482;54.396;18.590;2023-07-20T01:48:05;15.70;99.90
16728;DHT22;8482;54.396;18.590;2023-07-20T01:50:31;15.70;99.90
16728;DHT22;8482;54.396;18.590;2023-07-20T01:52:58;15.70;99.90
16728;DHT22;8482;54.396;18.590;2023-07-20T01:55:23;15.70;99.90
16728;DHT22;8482;54.396;18.590;2023-07-20T01:57:49;15.70;99.90
16728;DHT22;8482;54.396;18.590;2023-07-20T02:00:16;15.70;99.90
16728;DHT22;8482;54.396;18.590;2023-07-20T02:02:44;15.70;99.90
16728;DHT22;8482;54.396;18.590;2023-07-20T02:05:10;15.70;99.90
16728;DHT22;8482;54.396;18.590;2023-07-20T02:07:36;15.70;99.90
16728;DHT22;8482;54.396;18.590;2023-07-20T02:10:01;15.70;99.90
16728;DHT22;8482;54.396;18.590;2023-07-20T02:12:27;15.70;99.90
16728;DHT22;8482;54.396;18.590;2023-07-20T02:14:53;15.70;99.90
16728;DHT22;8482;54.396;18.590;2023-07-20T02:17:19;15.70;99.90
16728;DHT22;8482;54.396;18.590;2023-07-20T02:19:45;15.70;99.90
16728;DHT22;8482;54.396;18.590;2023-07-20T02:22:10;15.70;99.90
16728;DHT22;8482;54.396;18.590;2023-07-20T02:24:36;15.70;99.90
16728;DHT22;8482;54.396;18.590;2023-07-20T02:27:02;15.70;99.90
16728;DHT22;8482;54.396;18.590;2023-07-20T02:29:28;15.70;99.90
16728;DHT22;8482;54.396;18.590;2023-07-20T02:31:54;15.70;99.90
16728;DHT22;8482;54.396;18.590;2023-07-20T02:34:20;15.70;99.90
16728;DHT22;8482;54.396;18.590;2023-07-20T02:36:46;15.80;99.90
16728;DHT22;8482;54.396;18.590;2023-07-20T02:39:12;15.80;99.90
16728;DHT22;8482;54.396;18.590;2023-07-20T02:41:37;15.70;99.90
16728;DHT22;8482;54.396;18.590;2023-07-20T02:44:03;15.70;99.90
16728;DHT22;8482;54.396;18.590;2023-07-20T02:46:29;15.70;99.90
16728;DHT22;8482;54.396;18.590;2023-07-20T02:48:55;15.70;99.90
16728;DHT22;8482;54.396;18.590;2023-07-20T02:51:21;15.70;99.90
16728;DHT22;8482;54.396;18.590;2023-07-20T02:53:47;15.70;99.90
16728;DHT22;8482;54.396;18.590;2023-07-20T02:56:13;15.60;99.90
16728;DHT22;8482;54.396;18.590;2023-07-20T02:58:41;15.70;99.90
16728;DHT22;8482;54.396;18.590;2023-07-20T03:01:11;15.60;99.90
16728;DHT22;8482;54.396;18.590;2023-07-20T03:03:37;15.70;99.90
16728;DHT22;8482;54.396;18.590;2023-07-20T03:06:04;15.70;99.90
16728;DHT22;8482;54.396;18.590;2023-07-20T03:08:30;15.70;99.90
16728;DHT22;8482;54.396;18.590;2023-07-20T03:10:56;15.60;99.90
16728;DHT22;8482;54.396;18.590;2023-07-20T03:13:22;15.60;99.90
16728;DHT22;8482;54.396;18.590;2023-07-20T03:15:49;15.60;99.90
16728;DHT22;8482;54.396;18.590;2023-07-20T03:18:15;15.60;99.90
16728;DHT22;8482;54.396;18.590;2023-07-20T03:20:41;15.60;99.90
16728;DHT22;8482;54.396;18.590;2023-07-20T03:23:06;15.60;99.90
16728;DHT22;8482;54.396;18.590;2023-07-20T03:25:32;15.60;99.90
16728;DHT22;8482;54.396;18.590;2023-07-20T03:27:59;15.60;99.90
16728;DHT22;8482;54.396;18.590;2023-07-20T03:30:24;15.60;99.90
16728;DHT22;8482;54.396;18.590;2023-07-20T03:32:51;15.60;99.90
16728;DHT22;8482;54.396;18.590;2023-07-20T03:35:17;15.70;99.90
16728;DHT22;8482;54.396;18.590;2023-07-20T03:37:42;15.60;99.90
16728;DHT22;8482;54.396;18.590;2023-07-20T03:40:09;15.70;99.90
16728;DHT22;8482;54.396;18.590;2023-07-20T03:42:35;15.70;99.90
16728;DHT22;8482;54.396;18.590;2023-07-20T03:45:01;15.70;99.90
16728;DHT22;8482;54.396;18.590;2023-07-20T03:47:28;15.70;99.90
16728;DHT22;8482;54.396;18.590;2023-07-20T03:49:54;15.70;99.90
16728;DHT22;8482;54.396;18.590;2023-07-20T03:52:20;15.70;99.90
16728;DHT22;8482;54.396;18.590;2023-07-20T03:54:46;15.80;99.90
16728;DHT22;8482;54.396;18.590;2023-07-20T03:57:11;15.80;99.90
16728;DHT22;8482;54.396;18.590;2023-07-20T03:59:38;15.80;99.90
16728;DHT22;8482;54.396;18.590;2023-07-20T04:02:05;15.90;99.90
16728;DHT22;8482;54.396;18.590;2023-07-20T04:04:31;15.90;99.90
16728;DHT22;8482;54.396;18.590;2023-07-20T04:06:57;15.90;99.90
16728;DHT22;8482;54.396;18.590;2023-07-20T04:09:22;16.00;99.90
16728;DHT22;8482;54.396;18.590;2023-07-20T04:11:48;16.00;99.90
16728;DHT22;8482;54.396;18.590;2023-07-20T04:14:14;16.00;99.90
16728;DHT22;8482;54.396;18.590;2023-07-20T04:16:40;16.10;99.90
16728;DHT22;8482;54.396;18.590;2023-07-20T04:19:06;16.10;99.90
16728;DHT22;8482;54.396;18.590;2023-07-20T04:21:32;16.10;99.90
16728;DHT22;8482;54.396;18.590;2023-07-20T04:23:57;16.20;99.90
16728;DHT22;8482;54.396;18.590;2023-07-20T04:26:23;16.20;99.90
16728;DHT22;8482;54.396;18.590;2023-07-20T04:28:49;16.30;99.90
16728;DHT22;8482;54.396;18.590;2023-07-20T04:31:16;16.30;99.90
16728;DHT22;8482;54.396;18.590;2023-07-20T04:33:42;16.30;99.90
16728;DHT22;8482;54.396;18.590;2023-07-20T04:36:08;16.40;99.90
16728;DHT22;8482;54.396;18.590;2023-07-20T04:38:34;16.40;99.90
16728;DHT22;8482;54.396;18.590;2023-07-20T04:41:00;16.50;99.90
16728;DHT22;8482;54.396;18.590;2023-07-20T04:43:28;16.50;99.90
16728;DHT22;8482;54.396;18.590;2023-07-20T04:45:54;16.60;99.90
16728;DHT22;8482;54.396;18.590;2023-07-20T04:48:20;16.60;99.90
16728;DHT22;8482;54.396;18.590;2023-07-20T04:50:46;16.60;99.90
16728;DHT22;8482;54.396;18.590;2023-07-20T04:53:13;16.60;99.90
16728;DHT22;8482;54.396;18.590;2023-07-20T04:55:39;16.60;99.90
16728;DHT22;8482;54.396;18.590;2023-07-20T04:58:06;16.60;99.90
16728;DHT22;8482;54.396;18.590;2023-07-20T05:00:33;16.60;99.90
16728;DHT22;8482;54.396;18.590;2023-07-20T05:02:59;16.70;99.90
16728;DHT22;8482;54.396;18.590;2023-07-20T05:05:25;16.70;99.90
16728;DHT22;8482;54.396;18.590;2023-07-20T05:07:51;16.70;99.90
16728;DHT22;8482;54.396;18.590;2023-07-20T05:10:17;16.70;99.90
16728;DHT22;8482;54.396;18.590;2023-07-20T05:12:43;16.80;99.90
16728;DHT22;8482;54.396;18.590;2023-07-20T05:15:10;16.80;99.90
16728;DHT22;8482;54.396;18.590;2023-07-20T05:17:35;16.80;99.90
16728;DHT22;8482;54.396;18.590;2023-07-20T05:20:02;16.80;99.90
16728;DHT22;8482;54.396;18.590;2023-07-20T05:22:29;16.80;99.90
16728;DHT22;8482;54.396;18.590;2023-07-20T05:24:55;16.80;99.90
16728;DHT22;8482;54.396;18.590;2023-07-20T05:27:21;16.80;99.90
16728;DHT22;8482;54.396;18.590;2023-07-20T05:29:47;16.80;99.90
16728;DHT22;8482;54.396;18.590;2023-07-20T05:32:14;16.90;99.90
16728;DHT22;8482;54.396;18.590;2023-07-20T05:34:40;16.90;99.90
16728;DHT22;8482;54.396;18.590;2023-07-20T05:37:06;16.90;99.90
16728;DHT22;8482;54.396;18.590;2023-07-20T05:39:35;16.90;99.90
16728;DHT22;8482;54.396;18.590;2023-07-20T05:42:01;16.90;99.90
16728;DHT22;8482;54.396;18.590;2023-07-20T05:44:26;17.00;99.90
16728;DHT22;8482;54.396;18.590;2023-07-20T05:46:52;17.00;99.90
16728;DHT22;8482;54.396;18.590;2023-07-20T05:49:18;17.00;99.90
16728;DHT22;8482;54.396;18.590;2023-07-20T05:51:44;17.00;99.90
16728;DHT22;8482;54.396;18.590;2023-07-20T05:54:09;17.00;99.90
16728;DHT22;8482;54.396;18.590;2023-07-20T05:56:36;17.10;99.90
16728;DHT22;8482;54.396;18.590;2023-07-20T05:59:01;17.10;99.90
16728;DHT22;8482;54.396;18.590;2023-07-20T06:01:27;17.10;99.90
16728;DHT22;8482;54.396;18.590;2023-07-20T06:03:53;17.10;99.90
16728;DHT22;8482;54.396;18.590;2023-07-20T06:06:19;17.10;99.90
16728;DHT22;8482;54.396;18.590;2023-07-20T06:08:46;17.10;99.90
16728;DHT22;8482;54.396;18.590;2023-07-20T06:11:11;17.20;99.90
16728;DHT22;8482;54.396;18.590;2023-07-20T06:13:37;17.10;99.90
16728;DHT22;8482;54.396;18.590;2023-07-20T06:16:03;17.10;99.90
16728;DHT22;8482;54.396;18.590;2023-07-20T06:18:30;17.20;99.90
16728;DHT22;8482;54.396;18.590;2023-07-20T06:20:56;17.20;99.90
16728;DHT22;8482;54.396;18.590;2023-07-20T06:23:22;17.20;99.90
16728;DHT22;8482;54.396;18.590;2023-07-20T06:25:48;17.30;99.90
16728;DHT22;8482;54.396;18.590;2023-07-20T06:28:14;17.30;99.90
16728;DHT22;8482;54.396;18.590;2023-07-20T06:30:40;17.30;99.90
16728;DHT22;8482;54.396;18.590;2023-07-20T06:33:06;17.30;99.90
16728;DHT22;8482;54.396;18.590;2023-07-20T06:35:34;17.30;99.90
16728;DHT22;8482;54.396;18.590;2023-07-20T06:38:01;17.30;99.90
16728;DHT22;8482;54.396;18.590;2023-07-20T06:40:29;17.30;99.90
16728;DHT22;8482;54.396;18.590;2023-07-20T06:42:56;17.40;99.90
16728;DHT22;8482;54.396;18.590;2023-07-20T06:45:22;17.30;99.90
16728;DHT22;8482;54.396;18.590;2023-07-20T06:47:48;17.30;99.90
16728;DHT22;8482;54.396;18.590;2023-07-20T06:50:14;17.30;99.90
16728;DHT22;8482;54.396;18.590;2023-07-20T06:52:40;17.40;99.90
16728;DHT22;8482;54.396;18.590;2023-07-20T06:55:07;17.30;99.90
16728;DHT22;8482;54.396;18.590;2023-07-20T06:57:33;17.30;99.90
16728;DHT22;8482;54.396;18.590;2023-07-20T06:59:59;17.40;99.90
16728;DHT22;8482;54.396;18.590;2023-07-20T07:02:25;17.30;99.90
16728;DHT22;8482;54.396;18.590;2023-07-20T07:04:50;17.30;99.90
16728;DHT22;8482;54.396;18.590;2023-07-20T07:07:16;17.30;99.90
16728;DHT22;8482;54.396;18.590;2023-07-20T07:09:42;17.30;99.90
16728;DHT22;8482;54.396;18.590;2023-07-20T07:12:08;17.30;99.90
16728;DHT22;8482;54.396;18.590;2023-07-20T07:14:34;17.30;99.90
16728;DHT22;8482;54.396;18.590;2023-07-20T07:17:00;17.20;99.90
16728;DHT22;8482;54.396;18.590;2023-07-20T07:19:26;17.20;99.90
16728;DHT22;8482;54.396;18.590;2023-07-20T07:21:53;17.20;99.90
16728;DHT22;8482;54.396;18.590;2023-07-20T07:24:19;17.20;99.90
16728;DHT22;8482;54.396;18.590;2023-07-20T07:26:44;17.20;99.90
16728;DHT22;8482;54.396;18.590;2023-07-20T07:29:10;17.20;99.90
16728;DHT22;8482;54.396;18.590;2023-07-20T07:31:36;17.20;99.90
16728;DHT22;8482;54.396;18.590;2023-07-20T07:34:04;17.20;99.90
16728;DHT22;8482;54.396;18.590;2023-07-20T07:36:31;17.30;99.90
16728;DHT22;8482;54.396;18.590;2023-07-20T07:38:57;17.30;99.90
16728;DHT22;8482;54.396;18.590;2023-07-20T07:41:23;17.20;99.90
16728;DHT22;8482;54.396;18.590;2023-07-20T07:43:49;17.30;99.90
16728;DHT22;8482;54.396;18.590;2023-07-20T07:46:15;17.40;99.90
16728;DHT22;8482;54.396;18.590;2023-07-20T07:48:41;17.40;99.90
16728;DHT22;8482;54.396;18.590;2023-07-20T07:51:07;17.40;99.90
16728;DHT22;8482;54.396;18.590;2023-07-20T07:53:34;17.50;99.90
16728;DHT22;8482;54.396;18.590;2023-07-20T07:56:02;17.50;99.90
16728;DHT22;8482;54.396;18.590;2023-07-20T07:58:28;17.50;99.90
16728;DHT22;8482;54.396;18.590;2023-07-20T08:00:54;17.60;99.90
16728;DHT22;8482;54.396;18.590;2023-07-20T08:03:20;17.60;99.90
16728;DHT22;8482;54.396;18.590;2023-07-20T08:05:47;17.60;99.90
16728;DHT22;8482;54.396;18.590;2023-07-20T08:08:12;17.70;99.90
16728;DHT22;8482;54.396;18.590;2023-07-20T08:10:38;17.80;99.90
16728;DHT22;8482;54.396;18.590;2023-07-20T08:13:04;17.80;99.90
16728;DHT22;8482;54.396;18.590;2023-07-20T08:15:30;17.80;99.90
16728;DHT22;8482;54.396;18.590;2023-07-20T08:17:55;17.90;99.90
16728;DHT22;8482;54.396;18.590;2023-07-20T08:20:22;18.00;99.90
16728;DHT22;8482;54.396;18.590;2023-07-20T08:22:54;18.00;99.90
16728;DHT22;8482;54.396;18.590;2023-07-20T08:25:20;18.10;99.90
16728;DHT22;8482;54.396;18.590;2023-07-20T08:27:47;18.20;99.90
16728;DHT22;8482;54.396;18.590;2023-07-20T08:30:13;18.30;99.90
16728;DHT22;8482;54.396;18.590;2023-07-20T08:32:39;18.40;99.90
16728;DHT22;8482;54.396;18.590;2023-07-20T08:35:05;18.50;99.90
16728;DHT22;8482;54.396;18.590;2023-07-20T08:37:31;18.50;99.90
16728;DHT22;8482;54.396;18.590;2023-07-20T08:39:57;18.50;99.90
16728;DHT22;8482;54.396;18.590;2023-07-20T08:42:23;18.50;99.90
16728;DHT22;8482;54.396;18.590;2023-07-20T08:44:50;18.60;99.90
16728;DHT22;8482;54.396;18.590;2023-07-20T08:47:18;18.60;99.90
16728;DHT22;8482;54.396;18.590;2023-07-20T08:49:48;18.70;99.90
16728;DHT22;8482;54.396;18.590;2023-07-20T08:52:15;18.70;99.90
16728;DHT22;8482;54.396;18.590;2023-07-20T08:54:41;18.70;99.90
16728;DHT22;8482;54.396;18.590;2023-07-20T08:57:08;18.80;99.90
16728;DHT22;8482;54.396;18.590;2023-07-20T08:59:39;18.80;99.90
16728;DHT22;8482;54.396;18.590;2023-07-20T09:02:07;18.90;99.90
16728;DHT22;8482;54.396;18.590;2023-07-20T09:04:39;18.90;99.90
16728;DHT22;8482;54.396;18.590;2023-07-20T09:07:05;19.00;99.90
16728;DHT22;8482;54.396;18.590;2023-07-20T09:09:31;19.00;99.90
16728;DHT22;8482;54.396;18.590;2023-07-20T09:11:57;19.10;99.90
16728;DHT22;8482;54.396;18.590;2023-07-20T09:14:23;19.20;99.90
16728;DHT22;8482;54.396;18.590;2023-07-20T09:16:55;19.30;99.90
16728;DHT22;8482;54.396;18.590;2023-07-20T09:19:22;19.40;99.90
16728;DHT22;8482;54.396;18.590;2023-07-20T09:21:49;19.40;99.90
16728;DHT22;8482;54.396;18.590;2023-07-20T09:24:20;19.50;99.90
16728;DHT22;8482;54.396;18.590;2023-07-20T09:26:48;19.50;99.90
16728;DHT22;8482;54.396;18.590;2023-07-20T09:29:18;19.60;99.90
16728;DHT22;8482;54.396;18.590;2023-07-20T09:31:59;19.60;99.90
16728;DHT22;8482;54.396;18.590;2023-07-20T09:34:32;19.70;99.90
16728;DHT22;8482;54.396;18.590;2023-07-20T09:36:58;19.80;99.90
16728;DHT22;8482;54.396;18.590;2023-07-20T09:39:24;19.90;99.90
16728;DHT22;8482;54.396;18.590;2023-07-20T09:41:51;20.00;99.90
16728;DHT22;8482;54.396;18.590;2023-07-20T09:44:17;20.00;99.90
16728;DHT22;8482;54.396;18.590;2023-07-20T09:46:48;20.10;99.90
16728;DHT22;8482;54.396;18.590;2023-07-20T09:49:14;20.20;99.90
16728;DHT22;8482;54.396;18.590;2023-07-20T09:51:44;20.20;99.90
16728;DHT22;8482;54.396;18.590;2023-07-20T09:54:11;20.20;99.90
16728;DHT22;8482;54.396;18.590;2023-07-20T09:56:39;20.30;99.90
16728;DHT22;8482;54.396;18.590;2023-07-20T09:59:06;20.30;99.90
16728;DHT22;8482;54.396;18.590;2023-07-20T10:01:33;20.30;99.90
16728;DHT22;8482;54.396;18.590;2023-07-20T10:04:03;20.30;99.90
16728;DHT22;8482;54.396;18.590;2023-07-20T10:06:32;20.30;99.90
16728;DHT22;8482;54.396;18.590;2023-07-20T10:09:02;20.30;99.90
16728;DHT22;8482;54.396;18.590;2023-07-20T10:11:35;20.40;99.90
16728;DHT22;8482;54.396;18.590;2023-07-20T10:14:04;20.40;99.90
16728;DHT22;8482;54.396;18.590;2023-07-20T10:16:39;20.50;99.90
16728;DHT22;8482;54.396;18.590;2023-07-20T10:22:19;20.60;99.90
16728;DHT22;8482;54.396;18.590;2023-07-20T10:24:52;20.60;99.90
16728;DHT22;8482;54.396;18.590;2023-07-20T10:27:20;20.70;99.90
16728;DHT22;8482;54.396;18.590;2023-07-20T10:29:47;20.70;99.90
16728;DHT22;8482;54.396;18.590;2023-07-20T10:32:14;20.70;99.90
16728;DHT22;8482;54.396;18.590;2023-07-20T10:34:40;20.70;99.90
16728;DHT22;8482;54.396;18.590;2023-07-20T10:37:06;20.80;99.90
16728;DHT22;8482;54.396;18.590;2023-07-20T10:39:32;20.80;99.90
16728;DHT22;8482;54.396;18.590;2023-07-20T10:42:08;20.80;99.90
16728;DHT22;8482;54.396;18.590;2023-07-20T10:44:41;20.90;99.90
16728;DHT22;8482;54.396;18.590;2023-07-20T10:47:12;20.90;99.90
16728;DHT22;8482;54.396;18.590;2023-07-20T10:49:58;20.90;99.90
16728;DHT22;8482;54.396;18.590;2023-07-20T10:52:25;20.90;99.90
16728;DHT22;8482;54.396;18.590;2023-07-20T10:54:51;21.00;99.80
16728;DHT22;8482;54.396;18.590;2023-07-20T10:57:28;21.00;99.70
16728;DHT22;8482;54.396;18.590;2023-07-20T11:00:25;20.90;99.00
16728;DHT22;8482;54.396;18.590;2023-07-20T11:02:58;20.80;98.50
16728;DHT22;8482;54.396;18.590;2023-07-20T11:05:43;20.70;98.50
16728;DHT22;8482;54.396;18.590;2023-07-20T11:08:12;20.70;97.90
16728;DHT22;8482;54.396;18.590;2023-07-20T11:14:03;20.60;97.80
16728;DHT22;8482;54.396;18.590;2023-07-20T11:16:41;20.60;98.40
16728;DHT22;8482;54.396;18.590;2023-07-20T11:19:22;20.50;99.10
16728;DHT22;8482;54.396;18.590;2023-07-20T11:21:59;20.50;99.90
16728;DHT22;8482;54.396;18.590;2023-07-20T11:24:25;20.40;99.90
16728;DHT22;8482;54.396;18.590;2023-07-20T11:26:52;20.30;99.90
16728;DHT22;8482;54.396;18.590;2023-07-20T11:29:20;20.00;99.90
16728;DHT22;8482;54.396;18.590;2023-07-20T11:31:49;19.80;99.90
16728;DHT22;8482;54.396;18.590;2023-07-20T11:34:19;19.50;99.90
16728;DHT22;8482;54.396;18.590;2023-07-20T11:36:48;19.40;99.90
16728;DHT22;8482;54.396;18.590;2023-07-20T11:39:19;19.20;99.90
16728;DHT22;8482;54.396;18.590;2023-07-20T11:41:51;19.10;99.90
16728;DHT22;8482;54.396;18.590;2023-07-20T11:44:20;19.10;99.90
16728;DHT22;8482;54.396;18.590;2023-07-20T11:49:30;19.00;99.90
16728;DHT22;8482;54.396;18.590;2023-07-20T11:52:00;18.90;99.90
16728;DHT22;8482;54.396;18.590;2023-07-20T11:54:27;18.90;99.90
16728;DHT22;8482;54.396;18.590;2023-07-20T11:56:54;19.00;99.90
16728;DHT22;8482;54.396;18.590;2023-07-20T11:59:22;19.00;99.90
16728;DHT22;8482;54.396;18.590;2023-07-20T12:01:49;19.00;99.90
16728;DHT22;8482;54.396;18.590;2023-07-20T12:04:15;19.00;99.90
16728;DHT22;8482;54.396;18.590;2023-07-20T12:06:41;19.00;99.90
16728;DHT22;8482;54.396;18.590;2023-07-20T12:09:13;19.00;99.90
16728;DHT22;8482;54.396;18.590;2023-07-20T12:11:43;19.10;99.90
16728;DHT22;8482;54.396;18.590;2023-07-20T12:14:10;19.10;99.90
16728;DHT22;8482;54.396;18.590;2023-07-20T12:16:37;19.20;99.90
16728;DHT22;8482;54.396;18.590;2023-07-20T12:21:34;19.20;99.90
16728;DHT22;8482;54.396;18.590;2023-07-20T12:24:06;19.30;99.90
16728;DHT22;8482;54.396;18.590;2023-07-20T12:26:34;19.30;99.90
16728;DHT22;8482;54.396;18.590;2023-07-20T12:29:01;19.40;99.90
16728;DHT22;8482;54.396;18.590;2023-07-20T12:31:29;19.40;99.90
16728;DHT22;8482;54.396;18.590;2023-07-20T12:33:56;19.50;99.90
16728;DHT22;8482;54.396;18.590;2023-07-20T12:36:24;19.50;99.90
16728;DHT22;8482;54.396;18.590;2023-07-20T12:38:50;19.60;99.90
16728;DHT22;8482;54.396;18.590;2023-07-20T12:41:16;19.60;99.90
16728;DHT22;8482;54.396;18.590;2023-07-20T12:43:44;19.60;99.90
16728;DHT22;8482;54.396;18.590;2023-07-20T12:46:11;19.70;99.90
16728;DHT22;8482;54.396;18.590;2023-07-20T12:48:39;19.70;99.90
16728;DHT22;8482;54.396;18.590;2023-07-20T12:51:08;19.70;99.90
16728;DHT22;8482;54.396;18.590;2023-07-20T12:53:34;19.80;99.90
16728;DHT22;8482;54.396;18.590;2023-07-20T12:56:01;19.90;99.90
16728;DHT22;8482;54.396;18.590;2023-07-20T12:58:27;20.10;99.90
16728;DHT22;8482;54.396;18.590;2023-07-20T13:00:53;20.20;99.90
16728;DHT22;8482;54.396;18.590;2023-07-20T13:03:19;20.30;99.90
16728;DHT22;8482;54.396;18.590;2023-07-20T13:05:46;20.40;99.90
16728;DHT22;8482;54.396;18.590;2023-07-20T13:08:13;20.50;99.90
16728;DHT22;8482;54.396;18.590;2023-07-20T13:10:39;20.60;99.40
16728;DHT22;8482;54.396;18.590;2023-07-20T13:13:05;20.60;99.40
16728;DHT22;8482;54.396;18.590;2023-07-20T13:15:40;20.70;99.50
16728;DHT22;8482;54.396;18.590;2023-07-20T13:18:07;20.80;99.60
16728;DHT22;8482;54.396;18.590;2023-07-20T13:20:32;21.00;99.40
16728;DHT22;8482;54.396;18.590;2023-07-20T13:22:58;21.10;97.40
16728;DHT22;8482;54.396;18.590;2023-07-20T13:25:24;21.30;95.70
16728;DHT22;8482;54.396;18.590;2023-07-20T13:27:50;21.40;94.90
16728;DHT22;8482;54.396;18.590;2023-07-20T13:30:16;21.50;93.80
16728;DHT22;8482;54.396;18.590;2023-07-20T13:32:45;21.60;94.00
16728;DHT22;8482;54.396;18.590;2023-07-20T13:35:14;21.70;93.80
16728;DHT22;8482;54.396;18.590;2023-07-20T13:37:41;21.80;92.30
16728;DHT22;8482;54.396;18.590;2023-07-20T13:40:08;21.90;91.70
16728;DHT22;8482;54.396;18.590;2023-07-20T13:42:39;21.90;92.40
16728;DHT22;8482;54.396;18.590;2023-07-20T13:45:06;21.90;93.60
16728;DHT22;8482;54.396;18.590;2023-07-20T13:47:32;21.80;94.50
16728;DHT22;8482;54.396;18.590;2023-07-20T13:49:58;21.70;97.00
16728;DHT22;8482;54.396;18.590;2023-07-20T13:52:24;21.60;98.50
16728;DHT22;8482;54.396;18.590;2023-07-20T13:54:50;21.50;99.90
16728;DHT22;8482;54.396;18.590;2023-07-20T13:57:16;21.50;99.90
16728;DHT22;8482;54.396;18.590;2023-07-20T13:59:42;21.40;99.90
16728;DHT22;8482;54.396;18.590;2023-07-20T14:02:08;21.40;99.90
16728;DHT22;8482;54.396;18.590;2023-07-20T14:04:34;21.40;99.90
16728;DHT22;8482;54.396;18.590;2023-07-20T14:07:01;21.40;99.90
16728;DHT22;8482;54.396;18.590;2023-07-20T14:09:26;21.40;99.90
16728;DHT22;8482;54.396;18.590;2023-07-20T14:11:52;21.40;99.90
16728;DHT22;8482;54.396;18.590;2023-07-20T14:14:18;21.50;99.90
16728;DHT22;8482;54.396;18.590;2023-07-20T14:16:44;21.50;99.90
16728;DHT22;8482;54.396;18.590;2023-07-20T14:19:10;21.60;99.90
16728;DHT22;8482;54.396;18.590;2023-07-20T14:21:36;21.70;99.90
16728;DHT22;8482;54.396;18.590;2023-07-20T14:24:01;21.80;99.90
16728;DHT22;8482;54.396;18.590;2023-07-20T14:26:27;21.90;99.90
16728;DHT22;8482;54.396;18.590;2023-07-20T14:28:53;22.00;99.90
16728;DHT22;8482;54.396;18.590;2023-07-20T14:31:19;22.10;99.90
16728;DHT22;8482;54.396;18.590;2023-07-20T14:33:45;22.20;99.90
16728;DHT22;8482;54.396;18.590;2023-07-20T14:36:11;22.40;99.90
16728;DHT22;8482;54.396;18.590;2023-07-20T14:38:37;22.50;99.90
16728;DHT22;8482;54.396;18.590;2023-07-20T14:41:03;22.60;99.90
16728;DHT22;8482;54.396;18.590;2023-07-20T14:43:31;22.80;99.90
16728;DHT22;8482;54.396;18.590;2023-07-20T14:45:57;22.90;99.60
16728;DHT22;8482;54.396;18.590;2023-07-20T14:48:23;23.00;98.60
16728;DHT22;8482;54.396;18.590;2023-07-20T14:50:49;23.00;98.00
16728;DHT22;8482;54.396;18.590;2023-07-20T14:53:14;23.10;97.70
16728;DHT22;8482;54.396;18.590;2023-07-20T14:55:41;23.10;97.30
16728;DHT22;8482;54.396;18.590;2023-07-20T14:58:08;23.20;97.20
16728;DHT22;8482;54.396;18.590;2023-07-20T15:00:34;23.30;96.80
16728;DHT22;8482;54.396;18.590;2023-07-20T15:03:00;23.40;96.50
16728;DHT22;8482;54.396;18.590;2023-07-20T15:05:26;23.60;95.60
16728;DHT22;8482;54.396;18.590;2023-07-20T15:07:52;23.70;95.20
16728;DHT22;8482;54.396;18.590;2023-07-20T15:10:19;23.80;94.70
16728;DHT22;8482;54.396;18.590;2023-07-20T15:12:45;23.90;94.30
16728;DHT22;8482;54.396;18.590;2023-07-20T15:15:12;24.10;93.60
16728;DHT22;8482;54.396;18.590;2023-07-20T15:17:42;24.20;93.20
16728;DHT22;8482;54.396;18.590;2023-07-20T15:20:11;24.30;92.70
16728;DHT22;8482;54.396;18.590;2023-07-20T15:22:38;24.40;92.20
16728;DHT22;8482;54.396;18.590;2023-07-20T15:25:08;24.60;91.60
16728;DHT22;8482;54.396;18.590;2023-07-20T15:27:39;24.60;86.00
16728;DHT22;8482;54.396;18.590;2023-07-20T15:30:07;24.60;83.70
16728;DHT22;8482;54.396;18.590;2023-07-20T15:32:33;24.60;82.50
16728;DHT22;8482;54.396;18.590;2023-07-20T15:34:59;24.70;82.70
16728;DHT22;8482;54.396;18.590;2023-07-20T15:37:25;24.70;83.00
16728;DHT22;8482;54.396;18.590;2023-07-20T15:39:51;24.80;81.10
16728;DHT22;8482;54.396;18.590;2023-07-20T15:42:17;24.90;80.90
16728;DHT22;8482;54.396;18.590;2023-07-20T15:44:43;25.00;80.80
16728;DHT22;8482;54.396;18.590;2023-07-20T15:47:09;25.10;79.90
16728;DHT22;8482;54.396;18.590;2023-07-20T15:49:36;25.10;77.50
16728;DHT22;8482;54.396;18.590;2023-07-20T15:52:02;25.20;76.80
16728;DHT22;8482;54.396;18.590;2023-07-20T15:54:28;25.20;76.10